Time;durP1;ratioP1;P1;durP2;ratioP2;P2;SDS_P1;SDS_P2;PMS_P1;PMS_P2;Temp;Humidity;BMP_temperature;BMP_pressure;BME280_temperature;BME280_humidity;BME280_pressure;Samples;Min_cycle;Max_cycle;Signal;HPM_P1;HPM_P2
2021/05/03 00:02:21;;;;;;;12.93;8.50;;;4.50;99.90;;;;;;5020164;28;20199;-59
2021/05/03 00:04:47;;;;;;;14.27;9.30;;;4.50;99.90;;;;;;5021560;28;21017;-57
2021/05/03 00:07:15;;;;;;;15.50;9.60;;;4.40;99.90;;;;;;5020461;28;20198;-60
2021/05/03 00:09:41;;;;;;;13.03;9.50;;;4.40;99.90;;;;;;5029419;28;20640;-61
2021/05/03 00:12:07;;;;;;;15.00;9.17;;;4.40;99.90;;;;;;5025931;28;20551;-58
2021/05/03 00:14:33;;;;;;;15.27;8.47;;;4.40;99.90;;;;;;5020178;28;20445;-58
2021/05/03 00:16:59;;;;;;;13.07;9.03;;;4.40;99.90;;;;;;5020373;28;20540;-59
2021/05/03 00:19:25;;;;;;;12.63;9.33;;;4.30;99.90;;;;;;5021873;28;20517;-59
2021/05/03 00:21:50;;;;;;;16.07;10.33;;;4.30;99.90;;;;;;5020358;28;20243;-58
2021/05/03 00:24:16;;;;;;;13.13;9.40;;;4.30;99.90;;;;;;5019180;28;20176;-59
2021/05/03 00:26:42;;;;;;;15.43;9.20;;;4.30;99.90;;;;;;5019650;28;20186;-59
2021/05/03 00:29:08;;;;;;;12.87;9.30;;;4.30;99.90;;;;;;5022463;28;20336;-59
2021/05/03 00:31:35;;;;;;;12.23;9.10;;;4.20;99.90;;;;;;5021012;28;20271;-58
2021/05/03 00:34:00;;;;;;;12.40;8.60;;;4.20;99.90;;;;;;5020919;28;20422;-59
2021/05/03 00:36:26;;;;;;;11.83;8.80;;;4.20;99.90;;;;;;5019246;28;20457;-58
2021/05/03 00:38:52;;;;;;;14.80;8.50;;;4.10;99.90;;;;;;5019320;28;20208;-59
2021/05/03 00:41:18;;;;;;;12.43;9.30;;;4.00;99.90;;;;;;5024227;28;22120;-58
2021/05/03 00:43:43;;;;;;;14.73;9.70;;;4.00;99.90;;;;;;5027435;28;20754;-59
2021/05/03 00:46:09;;;;;;;13.40;9.20;;;3.90;99.90;;;;;;5024355;28;20640;-61
2021/05/03 00:48:35;;;;;;;14.57;9.47;;;3.90;99.90;;;;;;5020516;28;20707;-60
2021/05/03 00:51:01;;;;;;;12.47;8.43;;;3.90;99.90;;;;;;5021235;28;20955;-59
2021/05/03 00:53:27;;;;;;;12.60;9.10;;;3.80;99.90;;;;;;5022563;28;20361;-59
2021/05/03 00:55:53;;;;;;;16.77;10.20;;;3.80;99.90;;;;;;5020313;28;21157;-59
2021/05/03 00:58:18;;;;;;;11.53;8.23;;;3.70;99.90;;;;;;5019162;28;20190;-59
2021/05/03 01:00:44;;;;;;;11.87;8.70;;;3.70;99.90;;;;;;5021956;28;20795;-59
2021/05/03 01:03:10;;;;;;;13.33;9.00;;;3.70;99.90;;;;;;5016708;28;20567;-58
2021/05/03 01:05:36;;;;;;;12.47;8.60;;;3.60;99.90;;;;;;5022167;28;20180;-60
2021/05/03 01:08:03;;;;;;;13.20;8.90;;;3.60;99.90;;;;;;5030285;28;20567;-59
2021/05/03 01:10:29;;;;;;;15.03;8.63;;;3.60;99.90;;;;;;5025553;28;20210;-58
2021/05/03 01:12:56;;;;;;;11.23;8.20;;;3.50;99.90;;;;;;5022922;28;20462;-59
2021/05/03 01:15:23;;;;;;;12.37;8.73;;;3.50;99.90;;;;;;5021491;28;20568;-60
2021/05/03 01:18:00;;;;;;;14.40;10.27;;;3.50;99.90;;;;;;5034201;28;21015;-58
2021/05/03 01:20:32;;;;;;;14.10;9.37;;;3.40;99.90;;;;;;5021459;28;20457;-59
2021/05/03 01:22:58;;;;;;;12.87;9.23;;;3.40;99.90;;;;;;5020034;28;20442;-61
2021/05/03 01:25:32;;;;;;;10.87;8.60;;;3.40;99.90;;;;;;5017839;28;20441;-59
2021/05/03 01:27:59;;;;;;;14.27;9.40;;;3.30;99.90;;;;;;5020708;28;20464;-58
2021/05/03 01:30:39;;;;;;;12.40;9.33;;;3.30;99.90;;;;;;5021149;28;20430;-59
2021/05/03 01:33:06;;;;;;;15.63;9.30;;;3.30;99.90;;;;;;5020014;28;20456;-60
2021/05/03 01:35:33;;;;;;;14.63;9.60;;;3.30;99.90;;;;;;5025835;28;20498;-59
2021/05/03 01:38:00;;;;;;;16.53;9.73;;;3.30;99.90;;;;;;5002974;28;20460;-59
2021/05/03 01:40:28;;;;;;;16.70;8.90;;;3.20;99.90;;;;;;5021127;28;20441;-59
2021/05/03 01:42:55;;;;;;;15.23;10.07;;;3.20;99.90;;;;;;5019837;28;20479;-59
2021/05/03 01:45:27;;;;;;;14.67;9.30;;;3.20;99.90;;;;;;5020156;28;20490;-59
2021/05/03 01:47:54;;;;;;;12.27;9.30;;;3.20;99.90;;;;;;5022695;28;20515;-60
2021/05/03 01:50:21;;;;;;;15.57;9.17;;;3.10;99.90;;;;;;5022417;28;20515;-60
2021/05/03 01:52:47;;;;;;;15.30;9.80;;;3.10;99.90;;;;;;5019875;28;20456;-58
2021/05/03 01:55:13;;;;;;;14.47;9.50;;;3.10;99.90;;;;;;5018200;28;20477;-58
2021/05/03 01:57:40;;;;;;;11.70;8.50;;;3.10;99.90;;;;;;5017861;28;20450;-59
2021/05/03 02:00:07;;;;;;;17.17;9.50;;;3.00;99.90;;;;;;5019944;28;20429;-60
2021/05/03 02:02:33;;;;;;;13.23;9.00;;;3.00;99.90;;;;;;5020374;28;20972;-59
2021/05/03 02:04:59;;;;;;;15.73;9.90;;;3.00;99.90;;;;;;5019273;28;21109;-59
2021/05/03 02:07:24;;;;;;;13.83;10.10;;;2.90;99.90;;;;;;5018510;28;20433;-60
2021/05/03 02:09:50;;;;;;;17.70;10.77;;;2.90;99.90;;;;;;5012344;28;20191;-59
2021/05/03 02:12:16;;;;;;;15.90;9.73;;;2.90;99.90;;;;;;5019630;28;20929;-59
2021/05/03 02:14:42;;;;;;;14.80;9.53;;;2.90;99.90;;;;;;5016604;28;20649;-59
2021/05/03 02:17:09;;;;;;;14.70;9.83;;;2.90;99.90;;;;;;5021901;28;20209;-58
2021/05/03 02:19:35;;;;;;;15.30;10.27;;;2.90;99.90;;;;;;5021801;28;20543;-60
2021/05/03 02:22:01;;;;;;;12.73;9.27;;;2.80;99.90;;;;;;5015045;28;20825;-59
2021/05/03 02:24:26;;;;;;;15.77;9.80;;;2.80;99.90;;;;;;5033782;28;20176;-59
2021/05/03 02:26:53;;;;;;;14.47;10.03;;;2.80;99.90;;;;;;5032933;28;20176;-59
2021/05/03 02:29:18;;;;;;;11.67;9.07;;;2.80;99.90;;;;;;5041329;28;20229;-60
2021/05/03 02:31:44;;;;;;;13.83;8.90;;;2.80;99.90;;;;;;5043920;28;20437;-60
2021/05/03 02:34:10;;;;;;;13.00;8.37;;;2.80;99.90;;;;;;5041690;28;20219;-60
2021/05/03 02:36:35;;;;;;;14.70;9.60;;;2.70;99.90;;;;;;5043245;28;20178;-61
2021/05/03 02:39:01;;;;;;;12.23;8.47;;;2.70;99.90;;;;;;5040521;28;20208;-62
2021/05/03 02:41:27;;;;;;;13.67;9.50;;;2.70;99.90;;;;;;5047101;28;20228;-60
2021/05/03 02:43:52;;;;;;;13.00;8.60;;;2.70;99.90;;;;;;5028550;28;20211;-60
2021/05/03 02:46:20;;;;;;;15.97;9.73;;;2.70;99.90;;;;;;5021472;28;20266;-59
2021/05/03 02:48:46;;;;;;;17.33;10.80;;;2.70;99.90;;;;;;5020362;28;20202;-60
2021/05/03 02:51:12;;;;;;;15.97;9.63;;;2.80;99.90;;;;;;5020622;28;20471;-60
2021/05/03 02:53:37;;;;;;;12.03;8.70;;;2.70;99.90;;;;;;5018599;28;20980;-60
2021/05/03 02:56:03;;;;;;;13.93;9.70;;;2.70;99.90;;;;;;5019394;28;20187;-59
2021/05/03 02:58:29;;;;;;;13.77;9.30;;;2.70;99.90;;;;;;5019959;28;20628;-59
2021/05/03 03:00:54;;;;;;;13.60;9.27;;;2.80;99.90;;;;;;5021519;28;20180;-59
2021/05/03 03:03:20;;;;;;;15.20;9.87;;;2.70;99.90;;;;;;5019174;28;20950;-64
2021/05/03 03:05:46;;;;;;;14.30;9.37;;;2.70;99.90;;;;;;5017447;28;20180;-58
2021/05/03 03:08:11;;;;;;;23.27;9.93;;;2.70;99.90;;;;;;5019092;28;20635;-59
2021/05/03 03:10:37;;;;;;;14.63;9.70;;;2.70;99.90;;;;;;5020007;28;20192;-59
2021/05/03 03:13:04;;;;;;;20.00;10.13;;;2.70;99.90;;;;;;5020710;28;20203;-58
2021/05/03 03:15:33;;;;;;;14.93;10.40;;;2.70;99.90;;;;;;5017186;28;20176;-58
2021/05/03 03:18:01;;;;;;;17.17;9.90;;;2.70;99.90;;;;;;5021153;28;20458;-59
2021/05/03 03:20:27;;;;;;;17.87;11.43;;;2.60;99.90;;;;;;5018252;28;20824;-59
2021/05/03 03:22:53;;;;;;;18.47;11.00;;;2.60;99.90;;;;;;5018915;28;20457;-58
2021/05/03 03:25:19;;;;;;;17.00;10.50;;;2.60;99.90;;;;;;5016748;28;20544;-58
2021/05/03 03:27:45;;;;;;;17.10;11.53;;;2.60;99.90;;;;;;5017235;28;20737;-59
2021/05/03 03:30:13;;;;;;;18.60;10.40;;;2.60;99.90;;;;;;5020305;28;20888;-59
2021/05/03 03:32:43;;;;;;;21.53;10.83;;;2.70;99.90;;;;;;5021416;28;20450;-59
2021/05/03 03:35:10;;;;;;;26.13;11.67;;;2.70;99.90;;;;;;5019523;28;20429;-59
2021/05/03 03:37:35;;;;;;;30.10;13.80;;;2.70;99.90;;;;;;5015950;28;20577;-59
2021/05/03 03:40:03;;;;;;;67.00;13.00;;;2.70;99.90;;;;;;5018056;28;20539;-59
2021/05/03 03:42:28;;;;;;;35.93;14.07;;;2.70;99.90;;;;;;5018546;28;20280;-59
2021/05/03 03:44:54;;;;;;;34.57;13.20;;;2.70;99.90;;;;;;5021756;28;21001;-59
2021/05/03 03:47:19;;;;;;;53.80;13.17;;;2.70;99.90;;;;;;5016421;28;20184;-60
2021/05/03 03:49:45;;;;;;;55.10;13.70;;;2.70;99.90;;;;;;5020905;28;20237;-59
2021/05/03 03:52:13;;;;;;;36.50;12.73;;;2.70;99.90;;;;;;5019200;28;20210;-60
2021/05/03 03:54:38;;;;;;;69.30;12.07;;;2.70;99.90;;;;;;5019974;28;20412;-59
2021/05/03 03:57:04;;;;;;;121.40;15.07;;;2.70;99.90;;;;;;5016863;28;21834;-58
2021/05/03 03:59:33;;;;;;;79.43;14.60;;;2.70;99.90;;;;;;5019292;28;20255;-60
2021/05/03 04:01:59;;;;;;;125.07;16.50;;;2.60;99.90;;;;;;5020124;28;20525;-60
2021/05/03 04:04:28;;;;;;;124.13;15.93;;;2.60;99.90;;;;;;5024003;28;20490;-58
2021/05/03 04:09:33;;;;;;;39.73;14.07;;;2.60;99.90;;;;;;5019883;28;21125;-59
2021/05/03 04:25:40;;;;;;;89.50;14.80;;;2.60;99.90;;;;;;5022741;28;20431;-59
2021/05/03 04:28:06;;;;;;;65.13;13.63;;;2.60;99.90;;;;;;5020459;28;22853;-58
2021/05/03 04:30:35;;;;;;;107.63;14.60;;;2.60;99.90;;;;;;5020112;28;20527;-58
2021/05/03 04:33:01;;;;;;;51.27;13.90;;;2.60;99.90;;;;;;5021067;28;20447;-59
2021/05/03 04:35:27;;;;;;;62.90;13.47;;;2.60;99.90;;;;;;5025214;28;20524;-59
2021/05/03 04:37:53;;;;;;;63.30;13.80;;;2.50;99.90;;;;;;5025571;28;20479;-59
2021/05/03 04:40:19;;;;;;;92.47;16.80;;;2.60;99.90;;;;;;5016333;28;20422;-60
2021/05/03 04:42:44;;;;;;;92.70;15.17;;;2.50;99.90;;;;;;5030660;28;20191;-59
2021/05/03 04:45:11;;;;;;;163.13;15.60;;;2.50;99.90;;;;;;5030550;28;20210;-59
2021/05/03 04:47:38;;;;;;;81.17;14.63;;;2.50;99.90;;;;;;5016432;28;20182;-60
2021/05/03 04:50:05;;;;;;;162.67;17.20;;;2.50;99.90;;;;;;5031198;28;21095;-60
2021/05/03 04:52:32;;;;;;;307.83;24.93;;;2.50;99.90;;;;;;5026942;28;21036;-60
2021/05/03 04:54:57;;;;;;;60.93;13.40;;;2.50;99.90;;;;;;5023149;28;20445;-59
2021/05/03 04:57:23;;;;;;;93.47;15.70;;;2.50;99.90;;;;;;5012420;28;20468;-59
2021/05/03 04:59:49;;;;;;;83.67;13.93;;;2.60;99.90;;;;;;5019194;28;20187;-59
2021/05/03 05:02:14;;;;;;;63.60;13.80;;;2.60;99.90;;;;;;5019463;28;20247;-53
2021/05/03 05:04:40;;;;;;;198.87;18.53;;;2.60;99.90;;;;;;5026918;28;20248;-58
2021/05/03 05:07:05;;;;;;;48.10;14.67;;;2.70;99.90;;;;;;5019641;28;20270;-60
2021/05/03 05:09:31;;;;;;;96.53;16.00;;;2.70;99.90;;;;;;5030056;28;20179;-60
2021/05/03 05:11:57;;;;;;;198.03;17.93;;;2.70;99.90;;;;;;5024408;28;20218;-60
2021/05/03 05:14:22;;;;;;;155.43;16.53;;;2.80;99.90;;;;;;5025018;28;20182;-59
2021/05/03 05:16:49;;;;;;;72.77;13.87;;;2.70;99.90;;;;;;5021207;28;20213;-60
2021/05/03 05:19:15;;;;;;;26.83;13.53;;;2.70;99.90;;;;;;5023855;28;20202;-60
2021/05/03 05:21:41;;;;;;;48.10;14.50;;;2.80;99.90;;;;;;5024719;28;20529;-61
2021/05/03 05:24:07;;;;;;;35.33;13.37;;;2.80;99.90;;;;;;5032603;28;20874;-63
2021/05/03 05:26:33;;;;;;;67.33;15.47;;;2.90;99.90;;;;;;5023162;28;20186;-60
2021/05/03 05:28:59;;;;;;;81.20;16.50;;;2.90;99.90;;;;;;5027044;28;20443;-60
2021/05/03 05:31:24;;;;;;;42.33;14.20;;;2.90;99.90;;;;;;5023665;28;20198;-59
2021/05/03 05:33:50;;;;;;;64.27;16.60;;;3.00;99.90;;;;;;5029355;28;20186;-59
2021/05/03 05:36:16;;;;;;;115.07;17.30;;;3.00;99.90;;;;;;5022328;28;20656;-59
2021/05/03 05:38:41;;;;;;;119.50;15.93;;;3.00;99.90;;;;;;5028101;28;20275;-58
2021/05/03 05:41:08;;;;;;;74.97;16.73;;;3.10;99.90;;;;;;5018273;28;20749;-60
2021/05/03 05:43:34;;;;;;;53.83;15.43;;;3.00;99.90;;;;;;5020780;28;20183;-61
2021/05/03 05:45:59;;;;;;;50.17;15.70;;;3.00;99.90;;;;;;5023960;28;20436;-59
2021/05/03 05:48:25;;;;;;;103.83;17.83;;;3.10;99.90;;;;;;5028103;28;20180;-59
2021/05/03 05:50:51;;;;;;;106.87;16.63;;;3.00;99.90;;;;;;5026385;28;20187;-59
2021/05/03 05:53:16;;;;;;;32.30;15.50;;;3.00;99.90;;;;;;5029292;28;20564;-58
2021/05/03 05:55:42;;;;;;;32.57;15.50;;;3.10;99.90;;;;;;5027674;28;20180;-59
2021/05/03 05:58:08;;;;;;;39.47;15.37;;;3.10;99.90;;;;;;5034993;28;20207;-59
2021/05/03 06:00:36;;;;;;;48.17;16.90;;;3.20;99.90;;;;;;5024530;28;20187;-59
2021/05/03 06:03:02;;;;;;;38.27;16.50;;;3.20;99.90;;;;;;5016713;28;20196;-58
2021/05/03 06:05:27;;;;;;;74.50;17.43;;;3.30;99.90;;;;;;5031900;28;20445;-58
2021/05/03 06:07:53;;;;;;;89.13;18.10;;;3.40;99.90;;;;;;5037996;28;20193;-59
2021/05/03 06:10:19;;;;;;;88.43;18.87;;;3.40;99.90;;;;;;5014956;28;20178;-59
2021/05/03 06:12:44;;;;;;;70.90;17.40;;;3.40;99.90;;;;;;5017747;28;20224;-60
2021/05/03 06:15:10;;;;;;;31.63;16.07;;;3.40;99.90;;;;;;5034043;28;20669;-58
2021/05/03 06:17:36;;;;;;;36.80;18.30;;;3.40;99.90;;;;;;5025492;28;20220;-60
2021/05/03 06:20:02;;;;;;;90.97;19.13;;;3.40;99.90;;;;;;5026427;28;20184;-58
2021/05/03 06:22:28;;;;;;;76.20;19.00;;;3.50;99.90;;;;;;5029832;28;20206;-59
2021/05/03 06:24:54;;;;;;;51.30;16.97;;;3.50;99.90;;;;;;5038923;28;20444;-60
2021/05/03 06:27:20;;;;;;;59.63;18.17;;;3.60;99.90;;;;;;5026666;28;20445;-58
2021/05/03 06:29:46;;;;;;;44.93;17.77;;;3.60;99.90;;;;;;5026415;28;20210;-58
2021/05/03 06:32:11;;;;;;;55.10;18.50;;;3.60;99.90;;;;;;5020598;28;20290;-60
2021/05/03 06:34:37;;;;;;;60.13;18.83;;;3.70;99.90;;;;;;5027212;28;20179;-59
2021/05/03 06:37:03;;;;;;;56.97;17.77;;;3.80;99.90;;;;;;5028453;28;20186;-59
2021/05/03 06:39:29;;;;;;;43.27;19.10;;;3.80;99.90;;;;;;5026895;28;20668;-58
2021/05/03 06:41:55;;;;;;;40.00;20.17;;;3.80;99.90;;;;;;5017784;28;20207;-59
2021/05/03 06:44:21;;;;;;;39.87;19.80;;;3.90;99.90;;;;;;5022885;28;20182;-58
2021/05/03 06:46:47;;;;;;;42.87;18.57;;;3.90;99.90;;;;;;5028161;28;20415;-58
2021/05/03 06:49:13;;;;;;;39.83;19.27;;;4.00;99.90;;;;;;5022974;28;20434;-61
2021/05/03 06:51:39;;;;;;;44.30;18.80;;;4.10;99.90;;;;;;5027003;28;20481;-59
2021/05/03 06:54:05;;;;;;;39.10;20.43;;;4.20;99.90;;;;;;5026703;28;20501;-60
2021/05/03 06:56:30;;;;;;;48.90;19.50;;;4.20;99.90;;;;;;5018089;28;20171;-59
2021/05/03 06:58:56;;;;;;;45.47;21.93;;;4.30;99.90;;;;;;5028745;28;20446;-58
2021/05/03 07:01:22;;;;;;;41.40;21.17;;;4.30;99.90;;;;;;5011790;28;20194;-58
2021/05/03 07:03:48;;;;;;;47.27;20.43;;;4.30;99.90;;;;;;5026845;28;20172;-58
2021/05/03 07:06:14;;;;;;;50.53;22.80;;;4.40;99.90;;;;;;5023459;28;20168;-58
2021/05/03 07:08:41;;;;;;;64.63;23.00;;;4.50;99.90;;;;;;5016479;28;20429;-59
2021/05/03 07:11:19;;;;;;;48.17;21.30;;;4.50;99.90;;;;;;5013868;28;20962;-59
2021/05/03 07:13:45;;;;;;;44.70;22.53;;;4.60;99.90;;;;;;5019134;28;20430;-58
2021/05/03 07:16:10;;;;;;;49.70;22.30;;;4.70;99.90;;;;;;5019461;28;20435;-58
2021/05/03 07:18:36;;;;;;;56.10;23.23;;;4.70;99.90;;;;;;5022473;28;20950;-56
2021/05/03 07:21:04;;;;;;;60.90;24.27;;;4.90;99.90;;;;;;5023205;28;20180;-57
2021/05/03 07:23:30;;;;;;;48.97;22.50;;;5.00;99.90;;;;;;5024781;28;20537;-58
2021/05/03 07:25:58;;;;;;;47.33;20.27;;;5.10;99.90;;;;;;5018228;28;20524;-58
2021/05/03 07:28:23;;;;;;;47.40;21.50;;;5.20;99.90;;;;;;5017145;28;20813;-60
2021/05/03 07:30:50;;;;;;;48.20;22.30;;;5.30;99.90;;;;;;5007643;28;20442;-60
2021/05/03 07:33:16;;;;;;;43.17;20.50;;;5.40;99.90;;;;;;5021629;28;20676;-60
2021/05/03 07:35:42;;;;;;;42.97;21.80;;;5.40;99.90;;;;;;5028439;28;20521;-61
2021/05/03 07:38:08;;;;;;;44.30;20.93;;;5.50;99.90;;;;;;5023844;28;20233;-60
2021/05/03 07:40:33;;;;;;;44.67;21.23;;;5.50;99.90;;;;;;5020841;28;20194;-60
2021/05/03 07:42:59;;;;;;;43.07;21.33;;;5.60;99.90;;;;;;5016062;28;20750;-60
2021/05/03 07:45:25;;;;;;;55.13;23.43;;;5.70;99.90;;;;;;5016117;28;20183;-60
2021/05/03 07:47:50;;;;;;;51.80;22.50;;;5.70;99.90;;;;;;5020181;28;20554;-59
2021/05/03 07:50:16;;;;;;;60.37;24.87;;;5.80;99.90;;;;;;5019659;28;20214;-60
2021/05/03 07:52:42;;;;;;;63.63;25.07;;;5.90;99.90;;;;;;5021601;28;20360;-60
2021/05/03 07:55:12;;;;;;;63.67;26.23;;;6.10;99.90;;;;;;5011235;28;20226;-58
2021/05/03 07:57:37;;;;;;;61.33;24.43;;;6.30;99.90;;;;;;5017719;28;20653;-60
2021/05/03 08:00:05;;;;;;;56.00;24.60;;;6.40;99.90;;;;;;5030144;28;20513;-60
2021/05/03 08:02:33;;;;;;;56.33;25.17;;;6.50;99.90;;;;;;5029530;28;20188;-59
2021/05/03 08:04:58;;;;;;;59.67;26.70;;;6.70;99.90;;;;;;5030994;28;20414;-59
2021/05/03 08:07:24;;;;;;;51.17;24.57;;;6.90;99.90;;;;;;5029811;28;20515;-59
2021/05/03 08:09:50;;;;;;;53.20;25.33;;;7.00;99.90;;;;;;5029398;28;20190;-59
2021/05/03 08:12:15;;;;;;;53.60;24.67;;;7.20;99.90;;;;;;5031447;28;20203;-59
2021/05/03 08:14:41;;;;;;;61.30;24.23;;;7.40;99.90;;;;;;5030759;28;20180;-59
2021/05/03 08:17:12;;;;;;;51.00;23.73;;;7.60;99.90;;;;;;5025235;28;20179;-59
2021/05/03 08:19:38;;;;;;;54.70;24.07;;;7.90;99.90;;;;;;5034817;28;20179;-60
2021/05/03 08:22:04;;;;;;;53.33;23.60;;;8.20;99.90;;;;;;5032938;28;20430;-59
2021/05/03 08:24:32;;;;;;;39.80;21.00;;;8.50;99.90;;;;;;5025586;28;20176;-59
2021/05/03 08:27:02;;;;;;;41.73;19.87;;;8.50;99.90;;;;;;5028223;28;20403;-59
2021/05/03 08:29:28;;;;;;;43.57;20.43;;;8.40;99.70;;;;;;5029704;28;20433;-59
2021/05/03 08:31:56;;;;;;;41.83;19.33;;;8.20;99.30;;;;;;5037565;28;20559;-59
2021/05/03 08:34:23;;;;;;;40.87;18.10;;;8.10;99.40;;;;;;5022300;28;20431;-59
2021/05/03 08:36:52;;;;;;;32.30;16.13;;;8.20;99.50;;;;;;5029608;28;20431;-60
2021/05/03 08:39:19;;;;;;;32.07;16.80;;;8.50;99.40;;;;;;5030191;28;20465;-59
2021/05/03 08:41:48;;;;;;;20.43;12.37;;;8.70;98.30;;;;;;5029272;28;21021;-59
2021/05/03 08:44:14;;;;;;;19.97;10.90;;;8.90;96.20;;;;;;5026761;28;20430;-59
2021/05/03 08:46:44;;;;;;;17.10;10.23;;;9.20;93.90;;;;;;5025844;28;21081;-59
2021/05/03 08:49:23;;;;;;;11.43;9.17;;;9.40;90.40;;;;;;5027896;28;20422;-60
2021/05/03 08:54:38;;;;;;;11.50;7.13;;;9.50;78.80;;;;;;5036583;28;20464;-60
2021/05/03 08:57:06;;;;;;;8.93;7.03;;;9.60;64.90;;;;;;5022961;28;20423;-60
2021/05/03 08:59:35;;;;;;;13.90;7.50;;;9.70;61.40;;;;;;5027943;28;20808;-63
2021/05/03 09:02:02;;;;;;;9.50;6.80;;;9.80;62.70;;;;;;5022801;28;20458;-59
2021/05/03 09:04:28;;;;;;;8.47;6.60;;;9.90;60.60;;;;;;5031166;28;20421;-60
2021/05/03 09:07:06;;;;;;;10.73;7.47;;;9.80;58.30;;;;;;5026387;28;20503;-61
2021/05/03 09:09:54;;;;;;;10.17;7.37;;;9.80;61.80;;;;;;5022928;28;20433;-60
2021/05/03 09:12:22;;;;;;;7.73;6.43;;;10.00;63.10;;;;;;5026948;28;20468;-59
2021/05/03 09:14:55;;;;;;;12.03;7.50;;;10.30;58.50;;;;;;5025286;28;20475;-59
2021/05/03 09:17:31;;;;;;;8.10;6.43;;;10.50;56.40;;;;;;5030620;28;20808;-59
2021/05/03 09:20:00;;;;;;;10.13;7.47;;;10.70;56.70;;;;;;5033463;28;20442;-59
2021/05/03 09:22:41;;;;;;;16.37;7.13;;;10.80;55.50;;;;;;5027926;28;20459;-59
2021/05/03 09:25:36;;;;;;;8.03;7.10;;;10.90;56.90;;;;;;5033894;28;20462;-60
2021/05/03 09:28:12;;;;;;;10.57;7.70;;;11.00;54.20;;;;;;5035381;28;20426;-58
2021/05/03 09:30:42;;;;;;;10.87;7.93;;;11.10;54.50;;;;;;5033880;28;20432;-59
2021/05/03 09:33:19;;;;;;;8.27;6.60;;;11.30;52.00;;;;;;5029351;28;20449;-59
2021/05/03 09:35:52;;;;;;;9.73;6.90;;;11.30;52.80;;;;;;5026978;28;20417;-61
2021/05/03 09:38:38;;;;;;;8.27;6.50;;;11.40;53.70;;;;;;5028039;28;20527;-58
2021/05/03 09:41:15;;;;;;;10.67;6.83;;;11.70;54.70;;;;;;5024605;28;20434;-59
2021/05/03 09:43:52;;;;;;;6.13;5.53;;;11.90;53.90;;;;;;5026933;28;21097;-60
2021/05/03 09:46:47;;;;;;;9.80;6.17;;;12.10;50.70;;;;;;5025394;28;20422;-60
2021/05/03 09:49:18;;;;;;;7.70;5.90;;;12.10;49.90;;;;;;5027011;28;20502;-57
2021/05/03 09:51:48;;;;;;;7.73;6.30;;;12.20;48.30;;;;;;5021047;28;20822;-60
2021/05/03 09:54:20;;;;;;;11.53;6.17;;;12.30;49.00;;;;;;5013973;28;20434;-59
2021/05/03 09:57:06;;;;;;;8.73;5.90;;;12.40;47.10;;;;;;5021013;28;20438;-59
2021/05/03 09:59:48;;;;;;;7.80;6.20;;;12.30;46.10;;;;;;5022725;28;20803;-60
2021/05/03 10:02:23;;;;;;;9.53;5.67;;;12.00;48.20;;;;;;5025170;28;20454;-59
2021/05/03 10:05:08;;;;;;;8.80;6.10;;;11.70;48.00;;;;;;5018072;28;21771;-60
2021/05/03 10:07:36;;;;;;;8.90;5.40;;;11.20;45.70;;;;;;5020039;28;20487;-60
2021/05/03 10:12:31;;;;;;;8.50;6.27;;;10.60;48.10;;;;;;5021159;28;20829;-60
2021/05/03 10:14:59;;;;;;;6.60;5.47;;;10.70;49.00;;;;;;5018326;28;20442;-61
2021/05/03 10:17:27;;;;;;;5.83;4.90;;;11.00;49.00;;;;;;5019932;28;20506;-60
2021/05/03 10:19:57;;;;;;;6.83;5.90;;;11.50;48.50;;;;;;5028541;28;20443;-62
2021/05/03 10:22:24;;;;;;;7.20;5.77;;;12.00;48.60;;;;;;5023724;28;20801;-61
2021/05/03 10:24:57;;;;;;;10.13;5.57;;;12.30;47.20;;;;;;5028179;28;20426;-59
2021/05/03 10:27:24;;;;;;;5.90;5.30;;;12.20;46.10;;;;;;5028554;28;20459;-62
2021/05/03 10:30:08;;;;;;;6.37;5.50;;;11.90;45.60;;;;;;5021947;28;20476;-61
2021/05/03 10:32:34;;;;;;;7.40;5.40;;;11.60;45.60;;;;;;5012464;28;20462;-61
2021/05/03 10:35:02;;;;;;;6.03;4.83;;;11.40;46.60;;;;;;5029587;28;20433;-62
2021/05/03 10:37:34;;;;;;;7.10;5.37;;;11.20;47.00;;;;;;5022713;28;20466;-57
2021/05/03 10:40:02;;;;;;;6.63;5.13;;;11.00;46.50;;;;;;5026925;28;20426;-61
2021/05/03 10:42:29;;;;;;;8.03;5.23;;;10.90;46.10;;;;;;5034268;28;20454;-60
2021/05/03 10:45:17;;;;;;;14.67;7.83;;;10.80;46.00;;;;;;5027610;28;20522;-61
2021/05/03 10:47:48;;;;;;;7.80;6.10;;;10.70;46.90;;;;;;5031503;28;20440;-60
2021/05/03 10:50:37;;;;;;;10.33;5.77;;;10.70;47.90;;;;;;5026567;28;20446;-60
2021/05/03 10:56:03;;;;;;;9.40;6.27;;;10.60;48.80;;;;;;5021802;28;20438;-61
2021/05/03 10:58:29;;;;;;;10.93;5.40;;;10.60;49.00;;;;;;5014006;28;20466;-60
2021/05/03 11:01:05;;;;;;;8.33;5.83;;;10.60;48.80;;;;;;5012210;28;20426;-60
2021/05/03 11:03:56;;;;;;;7.23;5.53;;;10.60;49.90;;;;;;5012837;28;20469;-61
2021/05/03 11:06:37;;;;;;;8.77;5.60;;;10.70;49.30;;;;;;5022050;28;20441;-61
2021/05/03 11:09:31;;;;;;;8.60;5.60;;;11.00;50.40;;;;;;5021981;28;20434;-61
2021/05/03 11:12:06;;;;;;;7.10;5.50;;;11.30;49.60;;;;;;5025889;28;20505;-61
2021/05/03 11:14:39;;;;;;;8.70;5.00;;;11.50;48.50;;;;;;5025190;28;20862;-62
2021/05/03 11:17:08;;;;;;;8.57;5.17;;;11.60;45.60;;;;;;5039054;28;20967;-61
2021/05/03 11:22:25;;;;;;;10.43;5.50;;;11.30;45.60;;;;;;5013499;28;20884;-60
2021/05/03 11:24:56;;;;;;;7.00;5.70;;;11.10;45.80;;;;;;5026896;28;20422;-56
2021/05/03 11:27:42;;;;;;;7.70;4.90;;;11.10;46.50;;;;;;5002377;28;20521;-59
2021/05/03 11:30:24;;;;;;;5.20;4.33;;;11.10;47.00;;;;;;5024926;28;20433;-60
2021/05/03 11:32:57;;;;;;;5.13;4.07;;;11.00;44.70;;;;;;5022425;28;20463;-59
2021/05/03 11:38:16;;;;;;;4.93;4.13;;;11.70;46.20;;;;;;5014751;28;20459;-59
2021/05/03 11:41:11;;;;;;;6.60;4.33;;;11.80;43.70;;;;;;5016932;28;20437;-61
2021/05/03 11:43:54;;;;;;;7.03;3.70;;;11.80;42.70;;;;;;5023173;28;20803;-61
2021/05/03 11:46:31;;;;;;;6.93;5.00;;;11.70;42.50;;;;;;5023067;28;20480;-60
2021/05/03 11:49:18;;;;;;;5.70;4.57;;;11.80;44.00;;;;;;5025733;28;21061;-60
2021/05/03 11:51:52;;;;;;;5.53;4.87;;;12.00;44.50;;;;;;5017163;28;20490;-59
2021/05/03 11:54:30;;;;;;;6.80;4.57;;;12.20;44.00;;;;;;5022866;28;20429;-59
2021/05/03 11:57:07;;;;;;;5.47;4.67;;;12.80;45.20;;;;;;5024029;28;20466;-60
2021/05/03 11:59:35;;;;;;;5.80;4.20;;;13.40;43.80;;;;;;5029437;28;20481;-60
2021/05/03 12:02:30;;;;;;;4.50;4.10;;;13.80;44.60;;;;;;5020815;28;21270;-60
2021/05/03 12:04:55;;;;;;;6.20;3.53;;;13.60;40.60;;;;;;5026440;28;20463;-60
2021/05/03 12:07:23;;;;;;;4.90;4.30;;;13.40;40.40;;;;;;5018141;28;20600;-60
2021/05/03 12:10:17;;;;;;;4.30;3.87;;;12.90;38.90;;;;;;5020644;28;20219;-60
2021/05/03 12:12:46;;;;;;;6.43;4.33;;;12.60;39.50;;;;;;5022922;28;20523;-61
2021/05/03 12:15:25;;;;;;;5.43;4.73;;;12.20;39.70;;;;;;5027793;28;20460;-60
2021/05/03 12:17:52;;;;;;;6.83;4.37;;;12.00;40.40;;;;;;5019739;28;21830;-60
2021/05/03 12:20:20;;;;;;;5.23;4.50;;;12.10;41.00;;;;;;5023480;28;20435;-62
2021/05/03 12:23:12;;;;;;;4.27;3.80;;;12.10;40.80;;;;;;5026334;28;20458;-60
2021/05/03 12:25:57;;;;;;;5.43;4.30;;;12.10;41.10;;;;;;5030497;28;20430;-62
2021/05/03 12:28:25;;;;;;;6.60;4.63;;;12.20;41.50;;;;;;5022234;28;20541;-60
2021/05/03 12:30:55;;;;;;;5.40;4.60;;;12.40;41.90;;;;;;5028551;28;20426;-60
2021/05/03 12:33:21;;;;;;;6.17;4.40;;;12.50;41.20;;;;;;5021797;28;20462;-60
2021/05/03 12:35:50;;;;;;;12.33;4.70;;;12.40;40.50;;;;;;5028739;28;20914;-60
2021/05/03 12:38:28;;;;;;;5.20;3.87;;;12.30;40.60;;;;;;5024142;28;20541;-59
2021/05/03 12:40:56;;;;;;;7.57;4.53;;;12.20;40.60;;;;;;5030387;28;20434;-60
2021/05/03 12:43:29;;;;;;;6.30;4.80;;;12.10;40.90;;;;;;5031191;28;20477;-59
2021/05/03 12:48:44;;;;;;;4.80;4.33;;;12.00;41.50;;;;;;5030286;28;20437;-59
2021/05/03 12:54:43;;;;;;;8.60;4.30;;;11.90;41.40;;;;;;5050837;28;20480;-61
2021/05/03 12:56:56;;;;;;;5.63;3.63;;;11.90;42.20;;;;;;5039953;28;20450;-60
2021/05/03 12:59:33;;;;;;;5.83;3.97;;;12.20;41.50;;;;;;5030623;28;20451;-63
2021/05/03 13:02:25;;;;;;;4.57;3.40;;;12.80;40.70;;;;;;5033651;28;20544;-60
2021/05/03 13:29:12;;;;;;;3.90;3.20;;;16.10;34.10;;;;;;5025227;28;20457;-60
2021/05/03 13:31:39;;;;;;;4.20;3.40;;;16.30;34.50;;;;;;5015140;28;20455;-62
2021/05/03 13:34:11;;;;;;;5.23;3.00;;;16.40;33.00;;;;;;5025808;28;20427;-62
2021/05/03 13:36:40;;;;;;;5.60;3.90;;;16.50;31.80;;;;;;5037127;28;20426;-62
2021/05/03 13:39:08;;;;;;;4.00;3.37;;;16.40;31.10;;;;;;5037477;28;20462;-62
2021/05/03 13:41:39;;;;;;;4.67;3.03;;;16.00;31.50;;;;;;5028045;28;20466;-62
2021/05/03 13:44:06;;;;;;;5.33;3.40;;;16.00;31.70;;;;;;5036079;28;20995;-62
2021/05/03 13:46:33;;;;;;;3.73;3.37;;;15.70;31.20;;;;;;5026318;28;20469;-61
2021/05/03 13:48:59;;;;;;;2.70;2.50;;;15.50;31.60;;;;;;5017679;28;20484;-61
2021/05/03 13:51:26;;;;;;;3.90;3.47;;;15.50;32.20;;;;;;5022401;28;20462;-62